Flight Track Log - Related Links

Times and Time Zones

All times are in EDT time to prevent confusion due to time zone crossing. See the EGF2982 flight status page for this flight to view local times or setup timezone preferences in your user account.

Time Position Orientation Groundspeed Altitude Reporting Facility
EDT Latitude Longitude Course Direction KTS MPH feet Rate Location/Type
Thu 07:11:00 PM 32.9667 -97.0667 185° South 211 243 3,500  Level Dallas / Fort Worth TRACON
Thu 07:12:00 PM 32.6219 -97.1590 157° South  Level Estimated
Thu 07:12:01 PM 33.0167 -97.1000 331° Northwest 253 291 6,000  Level Dallas / Fort Worth TRACON
Thu 07:13:00 PM 32.5302 -97.1992 214° Southwest  Level Estimated
Thu 07:13:01 PM 33.0000 -97.2000 259° West 271 312 8,500  Level Dallas / Fort Worth TRACON
Thu 07:13:51 PM 32.9856 -97.2550 253° West 273 314 10,000 1,091 Climbing Fort Worth Center
Thu 07:14:00 PM 32.4385 -97.2393 205° Southwest  Level Estimated
Thu 07:14:51 PM 32.8897 -97.2947 199° South 288 331 10,500  Level Fort Worth Center
Thu 07:15:00 PM 32.3468 -97.2793 214° Southwest  Level Estimated
Thu 07:15:51 PM 32.7936 -97.2872 176° South 364 419 12,000  Level Fort Worth Center
Thu 07:16:00 PM 32.2551 -97.3193 185° South  Level Estimated
Thu 07:16:51 PM 32.6725 -97.2653 171° South 387 445 13,400  Level Fort Worth Center
Thu 07:17:51 PM 32.5703 -97.2433 170° South 413 475 14,700 1,350 Climbing Fort Worth Center
Thu 07:18:51 PM 32.4469 -97.2214 171° South 413 475 16,100 1,300 Climbing Fort Worth Center
Thu 07:19:51 PM 32.3342 -97.1969 170° South 414 476 17,300 950 Climbing Fort Worth Center
Thu 07:20:51 PM 32.2214 -97.2094 185° South 414 476 18,000 350 Climbing Fort Worth Center
Thu 07:21:51 PM 32.1319 -97.2931 218° Southwest 394 453 18,000  Level Fort Worth Center
Thu 07:22:51 PM 32.0506 -97.3889 225° Southwest 411 473 18,000  Level Fort Worth Center
Thu 07:23:51 PM 31.9692 -97.4747 222° Southwest 411 473 18,000 -200 Level Fort Worth Center
Thu 07:24:51 PM 31.8833 -97.5700 223° Southwest 417 480 17,600 -730 Descending Fort Worth Center
Thu 07:25:46 PM 31.8017 -97.6553 222° Southwest 414 476 16,600 -1,034 Descending Fort Worth Center
Thu 07:26:47 PM 31.7203 -97.7406 222° Southwest 409 471 15,600 -984 Descending Fort Worth Center
Thu 07:27:48 PM 31.6342 -97.8306 222° Southwest 402 463 14,600 -992 Descending Fort Worth Center
Thu 07:28:48 PM 31.5403 -97.8789 204° Southwest 401 461 13,600 -1,289 Descending Fort Worth Center
Thu 07:29:49 PM 31.4272 -97.9075 192° South 395 455 12,000 -1,525 Descending Fort Worth Center
Thu 07:30:50 PM 31.3167 -97.9361 192° South 391 450 10,500 -1,140 Descending Fort Worth Center
Thu 07:31:50 PM 31.2308 -97.9575 192° South 327 376 9,700 -1,488 Descending Fort Worth Center
Thu 07:32:51 PM 31.1456 -97.9206 160° South 315 362 7,500 -2,281 Descending Fort Worth Center
Thu 07:33:51 PM 31.0703 -97.8814 156° South 310 357 5,100 -2,400 Descending Fort Worth Center

Login

Don't have an account? Register now (free) for customized features, flight alerts, and more!